»·PEaware :: WAT308 S36-KORS

WAT308 :: S36-KORS

FLIGHT INFORMATION

Flight Status: Arrived
Operator:
Walker Air Transport
More flights by this operator :: More flights under this callsign
Pilot: Travis S. (24866)
Aircraft: BEECH AIRCRAFT SUPER KING AIR 350
(B350)
More flights by this aircraft type
Origin: S36 Norman Grier Field
United States
Destination: KORS Orcas Island
United States
More flights between these airports :: More routes between these airports
Route:
File this flight plan on PilotEdge
Remarks:
Altitude:
(Current/Filed)
8,500ft
Speed:
(Current/Filed)
250kts
Departed: 06-Aug-20 04:53 AM
Arrived: 06-Aug-20 05:35 AM
Distance/Time
Traveled:
10nm/0:42
Distance/Time
To Go:
Arrived

Flight Plot

Page will automatically refresh every two minutes.

Flight plan parsing failed; only flown route is shown


Map Options




Map Legend


Flown Route
Filed Route
Departure Airport
Arrival Airport
Navaid (VOR, NDB)
Fix

Horizontal Profiles

Position Reports

Time Latitude Longitude Heading Altitude Ground
Speed
06-Aug-20 04:32 47.340811 -122.103276 260 477ft 0kts
06-Aug-20 04:33 47.340811 -122.103276 260 477ft 0kts
06-Aug-20 04:34 47.340811 -122.103276 260 477ft 0kts
06-Aug-20 04:35 47.340811 -122.103276 259 477ft 0kts
06-Aug-20 04:36 47.340811 -122.103276 259 477ft 0kts
06-Aug-20 04:37 47.340811 -122.103276 259 477ft 0kts
06-Aug-20 04:38 47.340811 -122.103276 259 477ft 0kts
06-Aug-20 04:39 47.340811 -122.103276 259 477ft 0kts
06-Aug-20 04:40 47.340811 -122.103276 259 477ft 0kts
06-Aug-20 04:41 47.340811 -122.103276 259 477ft 0kts
06-Aug-20 04:42 47.340811 -122.103276 259 477ft 0kts
06-Aug-20 04:43 47.340811 -122.103276 259 477ft 0kts
06-Aug-20 04:44 47.340811 -122.103276 259 477ft 0kts
06-Aug-20 04:45 47.340872 -122.103397 348 477ft 0kts
06-Aug-20 04:46 47.341347 -122.104208 14 477ft 4kts
06-Aug-20 04:47 47.341449 -122.104263 279 477ft 0kts
06-Aug-20 04:48 47.341463 -122.104509 250 477ft 1kts
06-Aug-20 04:49 47.341359 -122.104539 169 477ft 0kts
06-Aug-20 04:50 47.341359 -122.104539 169 477ft 0kts
06-Aug-20 04:51 47.340992 -122.104448 171 477ft 33kts
06-Aug-20 04:52 47.305582 -122.096976 169 1468ft 166kts
06-Aug-20 04:53 47.260925 -122.078948 129 3267ft 172kts
06-Aug-20 04:54 47.276436 -122.026064 38 4493ft 197kts
06-Aug-20 04:55 47.310659 -121.962556 74 4496ft 211kts
06-Aug-20 04:56 47.360235 -121.924205 21 4493ft 220kts
06-Aug-20 04:57 47.413303 -121.876469 37 4491ft 223kts
06-Aug-20 04:58 47.461277 -121.824082 37 5769ft 197kts
06-Aug-20 04:59 47.510424 -121.791037 348 7175ft 197kts
06-Aug-20 05:00 47.564349 -121.805846 345 8515ft 204kts
06-Aug-20 05:01 47.619346 -121.821179 345 10093ft 200kts
06-Aug-20 05:02 47.679457 -121.838016 346 10512ft 247kts
06-Aug-20 05:03 47.750534 -121.859055 335 10484ft 275kts
06-Aug-20 05:04 47.797940 -121.942821 295 10493ft 274kts
06-Aug-20 05:05 47.835079 -122.042700 295 10492ft 279kts
06-Aug-20 05:06 47.872636 -122.144464 295 10491ft 280kts
06-Aug-20 05:07 47.909970 -122.246948 295 10491ft 281kts
06-Aug-20 05:08 47.962222 -122.335243 314 10491ft 288kts
06-Aug-20 05:09 48.021930 -122.415292 314 10491ft 288kts
06-Aug-20 05:10 48.092460 -122.467305 349 10489ft 298kts
06-Aug-20 05:11 48.170541 -122.484340 348 10483ft 289kts
06-Aug-20 05:12 48.248374 -122.504083 347 10483ft 277kts
06-Aug-20 05:13 48.323209 -122.524207 347 10486ft 269kts
06-Aug-20 05:14 48.396687 -122.543593 347 10487ft 266kts
06-Aug-20 05:15 48.469419 -122.562631 347 10497ft 265kts
06-Aug-20 05:16 48.542197 -122.581714 347 10480ft 265kts
06-Aug-20 05:17 48.615148 -122.600887 347 10455ft 265kts
06-Aug-20 05:18 48.687715 -122.619889 348 9287ft 262kts
06-Aug-20 05:19 48.755481 -122.652588 335 7772ft 249kts
06-Aug-20 05:20 48.818713 -122.691267 336 6232ft 236kts
06-Aug-20 05:21 48.876861 -122.727226 335 4790ft 216kts
06-Aug-20 05:22 48.931749 -122.746271 5 3376ft 201kts
06-Aug-20 05:23 48.987009 -122.738298 355 1934ft 199kts
06-Aug-20 05:24 48.999038 -122.704093 160 1979ft 140kts
06-Aug-20 05:25 48.958939 -122.696135 206 1954ft 159kts
06-Aug-20 05:26 48.920258 -122.732742 210 1915ft 159kts
06-Aug-20 05:27 48.886879 -122.763304 209 1940ft 129kts
06-Aug-20 05:28 48.856282 -122.791657 208 1861ft 134kts
06-Aug-20 05:29 48.820856 -122.824465 209 1858ft 154kts
06-Aug-20 05:30 48.790820 -122.851992 208 1807ft 104kts
06-Aug-20 05:31 48.766745 -122.873433 209 1499ft 109kts
06-Aug-20 05:32 48.739705 -122.897315 208 681ft 107kts
06-Aug-20 05:33 48.714219 -122.910518 179 54ft 93kts
06-Aug-20 05:34 48.707429 -122.910586 156 31ft 3kts
06-Aug-20 05:35 48.706667 -122.909998 179 34ft 1kts
06-Aug-20 05:36 48.705515 -122.909917 146 39ft 4kts
06-Aug-20 05:37 48.705214 -122.909657 173 38ft 0kts
06-Aug-20 05:38 48.705214 -122.909657 173 38ft 0kts
06-Aug-20 05:39 48.705214 -122.909657 181 38ft 0kts
06-Aug-20 05:40 48.705214 -122.909657 181 38ft 0kts
06-Aug-20 05:41 48.705214 -122.909657 181 38ft 0kts
06-Aug-20 05:42 48.705214 -122.909657 181 38ft 0kts
06-Aug-20 05:43 48.705214 -122.909657 181 38ft 0kts
06-Aug-20 05:44 48.705214 -122.909657 181 38ft 0kts
06-Aug-20 05:45 48.705214 -122.909657 181 38ft 0kts
06-Aug-20 05:46 48.705214 -122.909657 181 38ft 0kts
06-Aug-20 05:47 48.705214 -122.909657 181 38ft 0kts
06-Aug-20 05:48 47.444095 -122.304259 152 476ft 0kts
06-Aug-20 05:49 47.444095 -122.304259 152 476ft 0kts

Navigation Log

Ident Type
Flight plan parsing failed, navigation log unavailable